메인 페이지
METAR-TAF:

METAR-TAF

공항 :

지부티, 지부티

위도: 11-33N, 경도: 043-10E, 고도: 49m

현재 날씨관측

예보는 1 시간 8분 전, 09:00시(UTC)에 발표되었습니다.
동북동5kt
온도 31°C
습도 66%
기압 1009 hPa
시정 10km 이상
고도 2000ft 상공 구름 조금
고도 13300ft 상공 구름 보통

METAR: HDAM 200900Z 07005KT 9999 FEW020 SCT133 31/24 Q1009

시각: 13:08 (10:08 UTC)

예보

예보는 5 시간 8분 전, 05:00시(UTC)에 발표되었습니다.
예보 대상 시간: 20일 06시부터 21일 06시까지 (UTC)
동북동10kt
시정 10km 이상
고도 2300ft 상공 구름 보통
고도 3000ft 상공 구름 보통
고도 13300ft 상공 구름 많음
전환 중
20일 12시부터 21일 06시까지 (UTC)
동남동10kt
고도 2300ft 상공 구름 보통
확률 40%
SH시부터 RA시까지 (UTC)
고도 2000ft 상공 구름 많음
고도 3000ft 상공 구름 보통
고도 3000ft 상공 구름 조금, 적란운.
고도 13300ft 상공 구름 많음

TAF: HDAM 200500Z 2006/2106 06010KT 9999 SCT023 SCT030 BKN133 BECMG 2012/2106 12010KT SCT023 PROB40 SHRA BKN020 SCT030 FEW030CB BKN133

4,000개 이상의 공항 관측 자료 및 예보 (METAR 및 TAF 보고).

지도상에서 검색 가능한 기상관측소가 노란 점과 빨간 점으로 표시되어 있습니다.

기상관측소 명을 보려면 표시 위로 마우스를 이동하세요.

날씨 관측과 예보를 보려면 클릭하세요.

지도 변경 : 확대하려면 엑스 표시가 있는 녹색 버튼, 축소하려면 빼기 표시가 있는 녹색 버튼, 다음 페이지의 지도를 보려면 녹색 화살표를 클릭하세요.


METAR-TAF: